sensor_id;sensor_type;location;lat;lon;timestamp;P1;durP1;ratioP1;P2;durP2;ratioP2
20140;SDS011;10231;47.702;9.826;2023-04-08T00:00:00;7.63;;;6.93;;
20140;SDS011;10231;47.702;9.826;2023-04-08T00:02:26;7.10;;;6.50;;
20140;SDS011;10231;47.702;9.826;2023-04-08T00:04:51;8.50;;;7.70;;
20140;SDS011;10231;47.702;9.826;2023-04-08T00:07:17;7.93;;;7.17;;
20140;SDS011;10231;47.702;9.826;2023-04-08T00:09:42;8.00;;;7.20;;
20140;SDS011;10231;47.702;9.826;2023-04-08T00:12:08;7.60;;;6.90;;
20140;SDS011;10231;47.702;9.826;2023-04-08T00:14:33;8.43;;;7.67;;
20140;SDS011;10231;47.702;9.826;2023-04-08T00:16:59;8.77;;;7.90;;
20140;SDS011;10231;47.702;9.826;2023-04-08T00:19:25;7.87;;;7.20;;
20140;SDS011;10231;47.702;9.826;2023-04-08T00:21:50;8.47;;;7.67;;
20140;SDS011;10231;47.702;9.826;2023-04-08T00:24:16;8.17;;;7.47;;
20140;SDS011;10231;47.702;9.826;2023-04-08T00:26:43;8.00;;;7.30;;
20140;SDS011;10231;47.702;9.826;2023-04-08T00:29:08;7.97;;;7.13;;
20140;SDS011;10231;47.702;9.826;2023-04-08T00:31:34;7.70;;;7.00;;
20140;SDS011;10231;47.702;9.826;2023-04-08T00:34:00;7.47;;;6.77;;
20140;SDS011;10231;47.702;9.826;2023-04-08T00:36:26;7.17;;;6.47;;
20140;SDS011;10231;47.702;9.826;2023-04-08T00:38:51;7.50;;;6.90;;
20140;SDS011;10231;47.702;9.826;2023-04-08T00:41:17;7.63;;;6.93;;
20140;SDS011;10231;47.702;9.826;2023-04-08T00:43:42;7.63;;;6.93;;
20140;SDS011;10231;47.702;9.826;2023-04-08T00:46:08;8.20;;;7.40;;
20140;SDS011;10231;47.702;9.826;2023-04-08T00:48:33;6.63;;;6.03;;
20140;SDS011;10231;47.702;9.826;2023-04-08T00:50:59;7.60;;;6.97;;
20140;SDS011;10231;47.702;9.826;2023-04-08T00:53:26;7.57;;;6.93;;
20140;SDS011;10231;47.702;9.826;2023-04-08T00:55:51;8.33;;;7.53;;
20140;SDS011;10231;47.702;9.826;2023-04-08T00:58:17;8.00;;;7.30;;
20140;SDS011;10231;47.702;9.826;2023-04-08T01:00:44;7.57;;;6.97;;
20140;SDS011;10231;47.702;9.826;2023-04-08T01:03:21;6.67;;;6.17;;
20140;SDS011;10231;47.702;9.826;2023-04-08T01:05:55;8.10;;;7.40;;
20140;SDS011;10231;47.702;9.826;2023-04-08T01:08:29;7.67;;;6.90;;
20140;SDS011;10231;47.702;9.826;2023-04-08T01:10:57;7.57;;;6.90;;
20140;SDS011;10231;47.702;9.826;2023-04-08T01:13:25;7.37;;;6.77;;
20140;SDS011;10231;47.702;9.826;2023-04-08T01:15:55;7.57;;;6.87;;
20140;SDS011;10231;47.702;9.826;2023-04-08T01:18:21;8.53;;;7.80;;
20140;SDS011;10231;47.702;9.826;2023-04-08T01:20:47;7.97;;;7.17;;
20140;SDS011;10231;47.702;9.826;2023-04-08T01:23:18;8.47;;;7.47;;
20140;SDS011;10231;47.702;9.826;2023-04-08T01:25:54;9.23;;;8.37;;
20140;SDS011;10231;47.702;9.826;2023-04-08T01:28:20;8.10;;;7.40;;
20140;SDS011;10231;47.702;9.826;2023-04-08T01:30:48;8.00;;;7.20;;
20140;SDS011;10231;47.702;9.826;2023-04-08T01:33:15;8.20;;;7.50;;
20140;SDS011;10231;47.702;9.826;2023-04-08T01:35:42;7.00;;;6.40;;
20140;SDS011;10231;47.702;9.826;2023-04-08T01:38:10;7.63;;;6.93;;
20140;SDS011;10231;47.702;9.826;2023-04-08T01:40:38;8.40;;;7.60;;
20140;SDS011;10231;47.702;9.826;2023-04-08T01:43:07;8.30;;;7.60;;
20140;SDS011;10231;47.702;9.826;2023-04-08T01:45:36;7.90;;;7.20;;
20140;SDS011;10231;47.702;9.826;2023-04-08T01:48:03;7.93;;;7.13;;
20140;SDS011;10231;47.702;9.826;2023-04-08T01:50:29;8.17;;;7.40;;
20140;SDS011;10231;47.702;9.826;2023-04-08T01:52:56;7.80;;;7.20;;
20140;SDS011;10231;47.702;9.826;2023-04-08T01:55:24;7.87;;;7.17;;
20140;SDS011;10231;47.702;9.826;2023-04-08T01:57:51;7.43;;;6.83;;
20140;SDS011;10231;47.702;9.826;2023-04-08T02:00:21;7.03;;;6.33;;
20140;SDS011;10231;47.702;9.826;2023-04-08T02:02:49;7.73;;;7.13;;
20140;SDS011;10231;47.702;9.826;2023-04-08T02:05:16;7.87;;;7.13;;
20140;SDS011;10231;47.702;9.826;2023-04-08T02:07:42;8.30;;;7.60;;
20140;SDS011;10231;47.702;9.826;2023-04-08T02:10:09;8.30;;;7.50;;
20140;SDS011;10231;47.702;9.826;2023-04-08T02:12:35;8.63;;;7.93;;
20140;SDS011;10231;47.702;9.826;2023-04-08T02:15:01;7.40;;;6.80;;
20140;SDS011;10231;47.702;9.826;2023-04-08T02:17:32;8.00;;;7.30;;
20140;SDS011;10231;47.702;9.826;2023-04-08T02:20:10;8.13;;;7.43;;
20140;SDS011;10231;47.702;9.826;2023-04-08T02:22:42;8.10;;;7.30;;
20140;SDS011;10231;47.702;9.826;2023-04-08T02:25:15;7.90;;;7.20;;
20140;SDS011;10231;47.702;9.826;2023-04-08T02:27:42;8.23;;;7.53;;
20140;SDS011;10231;47.702;9.826;2023-04-08T02:30:10;8.17;;;7.47;;
20140;SDS011;10231;47.702;9.826;2023-04-08T02:32:37;7.73;;;7.13;;
20140;SDS011;10231;47.702;9.826;2023-04-08T02:35:03;8.50;;;7.70;;
20140;SDS011;10231;47.702;9.826;2023-04-08T02:37:30;8.60;;;7.90;;
20140;SDS011;10231;47.702;9.826;2023-04-08T02:39:56;7.60;;;7.00;;
20140;SDS011;10231;47.702;9.826;2023-04-08T02:42:21;8.40;;;7.70;;
20140;SDS011;10231;47.702;9.826;2023-04-08T02:44:47;7.70;;;7.10;;
20140;SDS011;10231;47.702;9.826;2023-04-08T02:47:12;7.97;;;7.37;;
20140;SDS011;10231;47.702;9.826;2023-04-08T02:49:38;8.63;;;7.93;;
20140;SDS011;10231;47.702;9.826;2023-04-08T02:52:04;7.50;;;6.80;;
20140;SDS011;10231;47.702;9.826;2023-04-08T02:54:29;6.43;;;5.93;;
20140;SDS011;10231;47.702;9.826;2023-04-08T02:56:55;6.33;;;5.90;;
20140;SDS011;10231;47.702;9.826;2023-04-08T02:59:20;6.70;;;6.13;;
20140;SDS011;10231;47.702;9.826;2023-04-08T03:01:46;6.63;;;6.03;;
20140;SDS011;10231;47.702;9.826;2023-04-08T03:04:12;7.23;;;6.63;;
20140;SDS011;10231;47.702;9.826;2023-04-08T03:06:37;6.40;;;5.90;;
20140;SDS011;10231;47.702;9.826;2023-04-08T03:09:03;7.50;;;6.90;;
20140;SDS011;10231;47.702;9.826;2023-04-08T03:11:29;6.87;;;6.37;;
20140;SDS011;10231;47.702;9.826;2023-04-08T03:13:55;6.53;;;6.03;;
20140;SDS011;10231;47.702;9.826;2023-04-08T03:16:21;7.43;;;6.83;;
20140;SDS011;10231;47.702;9.826;2023-04-08T03:18:48;6.87;;;6.37;;
20140;SDS011;10231;47.702;9.826;2023-04-08T03:21:14;6.83;;;6.33;;
20140;SDS011;10231;47.702;9.826;2023-04-08T03:23:40;6.13;;;5.63;;
20140;SDS011;10231;47.702;9.826;2023-04-08T03:26:05;6.27;;;5.77;;
20140;SDS011;10231;47.702;9.826;2023-04-08T03:28:31;6.50;;;6.00;;
20140;SDS011;10231;47.702;9.826;2023-04-08T03:30:56;6.93;;;6.43;;
20140;SDS011;10231;47.702;9.826;2023-04-08T03:33:22;6.27;;;5.73;;
20140;SDS011;10231;47.702;9.826;2023-04-08T03:35:47;6.20;;;5.77;;
20140;SDS011;10231;47.702;9.826;2023-04-08T03:38:13;4.40;;;4.10;;
20140;SDS011;10231;47.702;9.826;2023-04-08T03:40:38;3.80;;;3.60;;
20140;SDS011;10231;47.702;9.826;2023-04-08T03:43:04;2.90;;;2.70;;
20140;SDS011;10231;47.702;9.826;2023-04-08T03:45:30;3.50;;;3.30;;
20140;SDS011;10231;47.702;9.826;2023-04-08T03:47:56;3.07;;;2.83;;
20140;SDS011;10231;47.702;9.826;2023-04-08T03:50:21;3.10;;;2.93;;
20140;SDS011;10231;47.702;9.826;2023-04-08T03:52:47;3.60;;;3.10;;
20140;SDS011;10231;47.702;9.826;2023-04-08T03:55:13;2.33;;;2.20;;
20140;SDS011;10231;47.702;9.826;2023-04-08T03:57:38;2.80;;;2.70;;
20140;SDS011;10231;47.702;9.826;2023-04-08T04:00:04;2.70;;;2.60;;
20140;SDS011;10231;47.702;9.826;2023-04-08T04:02:30;2.60;;;2.40;;
20140;SDS011;10231;47.702;9.826;2023-04-08T04:04:56;2.93;;;2.70;;
20140;SDS011;10231;47.702;9.826;2023-04-08T04:07:21;2.67;;;2.57;;
20140;SDS011;10231;47.702;9.826;2023-04-08T04:09:47;3.20;;;3.00;;
20140;SDS011;10231;47.702;9.826;2023-04-08T04:12:12;4.23;;;3.87;;
20140;SDS011;10231;47.702;9.826;2023-04-08T04:14:38;4.30;;;4.00;;
20140;SDS011;10231;47.702;9.826;2023-04-08T04:17:03;4.70;;;4.30;;
20140;SDS011;10231;47.702;9.826;2023-04-08T04:19:29;4.70;;;4.40;;
20140;SDS011;10231;47.702;9.826;2023-04-08T04:21:55;4.50;;;4.20;;
20140;SDS011;10231;47.702;9.826;2023-04-08T04:24:21;4.83;;;4.43;;
20140;SDS011;10231;47.702;9.826;2023-04-08T04:26:47;4.83;;;4.43;;
20140;SDS011;10231;47.702;9.826;2023-04-08T04:29:12;5.30;;;4.90;;
20140;SDS011;10231;47.702;9.826;2023-04-08T04:31:37;5.17;;;4.77;;
20140;SDS011;10231;47.702;9.826;2023-04-08T04:34:03;4.60;;;4.20;;
20140;SDS011;10231;47.702;9.826;2023-04-08T04:36:29;4.83;;;4.33;;
20140;SDS011;10231;47.702;9.826;2023-04-08T04:38:56;4.47;;;4.13;;
20140;SDS011;10231;47.702;9.826;2023-04-08T04:41:21;4.50;;;4.10;;
20140;SDS011;10231;47.702;9.826;2023-04-08T04:43:47;4.80;;;4.40;;
20140;SDS011;10231;47.702;9.826;2023-04-08T04:46:12;4.27;;;4.07;;
20140;SDS011;10231;47.702;9.826;2023-04-08T04:48:38;5.00;;;4.60;;
20140;SDS011;10231;47.702;9.826;2023-04-08T04:51:04;4.37;;;4.07;;
20140;SDS011;10231;47.702;9.826;2023-04-08T04:53:31;4.87;;;4.57;;
20140;SDS011;10231;47.702;9.826;2023-04-08T04:55:57;4.60;;;4.30;;
20140;SDS011;10231;47.702;9.826;2023-04-08T04:58:25;3.73;;;3.53;;
20140;SDS011;10231;47.702;9.826;2023-04-08T05:00:50;3.73;;;3.43;;
20140;SDS011;10231;47.702;9.826;2023-04-08T05:03:16;2.90;;;2.70;;
20140;SDS011;10231;47.702;9.826;2023-04-08T05:05:41;3.00;;;2.80;;
20140;SDS011;10231;47.702;9.826;2023-04-08T05:08:07;2.87;;;2.67;;
20140;SDS011;10231;47.702;9.826;2023-04-08T05:10:32;2.97;;;2.77;;
20140;SDS011;10231;47.702;9.826;2023-04-08T05:12:58;2.30;;;2.20;;
20140;SDS011;10231;47.702;9.826;2023-04-08T05:15:23;2.00;;;1.90;;
20140;SDS011;10231;47.702;9.826;2023-04-08T05:17:49;1.57;;;1.47;;
20140;SDS011;10231;47.702;9.826;2023-04-08T05:20:14;1.10;;;1.10;;
20140;SDS011;10231;47.702;9.826;2023-04-08T05:22:40;1.20;;;1.20;;
20140;SDS011;10231;47.702;9.826;2023-04-08T05:25:08;1.90;;;1.80;;
20140;SDS011;10231;47.702;9.826;2023-04-08T05:27:34;1.50;;;1.40;;
20140;SDS011;10231;47.702;9.826;2023-04-08T05:30:00;1.63;;;1.53;;
20140;SDS011;10231;47.702;9.826;2023-04-08T05:32:25;3.30;;;3.00;;
20140;SDS011;10231;47.702;9.826;2023-04-08T05:34:51;7.03;;;6.43;;
20140;SDS011;10231;47.702;9.826;2023-04-08T05:37:16;10.27;;;9.17;;
20140;SDS011;10231;47.702;9.826;2023-04-08T05:39:42;10.33;;;9.43;;
20140;SDS011;10231;47.702;9.826;2023-04-08T05:42:07;7.77;;;7.17;;
20140;SDS011;10231;47.702;9.826;2023-04-08T05:44:33;4.83;;;4.47;;
20140;SDS011;10231;47.702;9.826;2023-04-08T05:46:59;1.47;;;1.47;;
20140;SDS011;10231;47.702;9.826;2023-04-08T05:49:25;1.20;;;1.20;;
20140;SDS011;10231;47.702;9.826;2023-04-08T05:51:50;1.80;;;1.13;;
20140;SDS011;10231;47.702;9.826;2023-04-08T05:54:16;1.00;;;1.00;;
20140;SDS011;10231;47.702;9.826;2023-04-08T05:56:41;2.20;;;1.40;;
20140;SDS011;10231;47.702;9.826;2023-04-08T05:59:10;1.60;;;1.50;;
20140;SDS011;10231;47.702;9.826;2023-04-08T06:01:36;1.60;;;1.40;;
20140;SDS011;10231;47.702;9.826;2023-04-08T06:04:01;1.80;;;1.63;;
20140;SDS011;10231;47.702;9.826;2023-04-08T06:06:27;1.77;;;1.67;;
20140;SDS011;10231;47.702;9.826;2023-04-08T06:08:53;1.30;;;1.30;;
20140;SDS011;10231;47.702;9.826;2023-04-08T06:11:18;2.00;;;1.90;;
20140;SDS011;10231;47.702;9.826;2023-04-08T06:13:44;1.50;;;1.50;;
20140;SDS011;10231;47.702;9.826;2023-04-08T06:16:10;1.27;;;1.27;;
20140;SDS011;10231;47.702;9.826;2023-04-08T06:18:37;1.53;;;1.43;;
20140;SDS011;10231;47.702;9.826;2023-04-08T06:21:02;1.50;;;1.50;;
20140;SDS011;10231;47.702;9.826;2023-04-08T06:23:28;1.50;;;1.40;;
20140;SDS011;10231;47.702;9.826;2023-04-08T06:25:53;1.47;;;1.47;;
20140;SDS011;10231;47.702;9.826;2023-04-08T06:28:19;1.47;;;1.43;;
20140;SDS011;10231;47.702;9.826;2023-04-08T06:30:44;1.80;;;1.70;;
20140;SDS011;10231;47.702;9.826;2023-04-08T06:33:10;1.90;;;1.80;;
20140;SDS011;10231;47.702;9.826;2023-04-08T06:35:36;1.57;;;1.53;;
20140;SDS011;10231;47.702;9.826;2023-04-08T06:38:01;1.90;;;1.80;;
20140;SDS011;10231;47.702;9.826;2023-04-08T06:40:27;1.90;;;1.80;;
20140;SDS011;10231;47.702;9.826;2023-04-08T06:42:53;1.93;;;1.70;;
20140;SDS011;10231;47.702;9.826;2023-04-08T06:45:19;1.57;;;1.47;;
20140;SDS011;10231;47.702;9.826;2023-04-08T06:47:45;1.73;;;1.60;;
20140;SDS011;10231;47.702;9.826;2023-04-08T06:50:11;1.40;;;1.40;;
20140;SDS011;10231;47.702;9.826;2023-04-08T06:52:36;1.70;;;1.60;;
20140;SDS011;10231;47.702;9.826;2023-04-08T06:55:02;1.67;;;1.57;;
20140;SDS011;10231;47.702;9.826;2023-04-08T06:57:27;1.63;;;1.53;;
20140;SDS011;10231;47.702;9.826;2023-04-08T06:59:53;1.70;;;1.60;;
20140;SDS011;10231;47.702;9.826;2023-04-08T07:02:20;1.57;;;1.57;;
20140;SDS011;10231;47.702;9.826;2023-04-08T07:04:46;1.90;;;1.80;;
20140;SDS011;10231;47.702;9.826;2023-04-08T07:07:12;2.17;;;2.07;;
20140;SDS011;10231;47.702;9.826;2023-04-08T07:09:37;1.97;;;1.87;;
20140;SDS011;10231;47.702;9.826;2023-04-08T07:12:05;1.80;;;1.70;;
20140;SDS011;10231;47.702;9.826;2023-04-08T07:14:30;1.23;;;1.23;;
20140;SDS011;10231;47.702;9.826;2023-04-08T07:16:56;1.40;;;1.30;;
20140;SDS011;10231;47.702;9.826;2023-04-08T07:19:22;1.50;;;1.50;;
20140;SDS011;10231;47.702;9.826;2023-04-08T07:21:48;1.43;;;1.43;;
20140;SDS011;10231;47.702;9.826;2023-04-08T07:24:14;2.10;;;2.00;;
20140;SDS011;10231;47.702;9.826;2023-04-08T07:26:40;1.67;;;1.67;;
20140;SDS011;10231;47.702;9.826;2023-04-08T07:29:05;1.83;;;1.73;;
20140;SDS011;10231;47.702;9.826;2023-04-08T07:31:31;1.80;;;1.70;;
20140;SDS011;10231;47.702;9.826;2023-04-08T07:33:57;1.70;;;1.60;;
20140;SDS011;10231;47.702;9.826;2023-04-08T07:36:22;2.10;;;2.03;;
20140;SDS011;10231;47.702;9.826;2023-04-08T07:38:48;2.07;;;1.67;;
20140;SDS011;10231;47.702;9.826;2023-04-08T07:41:13;1.47;;;1.40;;
20140;SDS011;10231;47.702;9.826;2023-04-08T07:43:39;1.83;;;1.73;;
20140;SDS011;10231;47.702;9.826;2023-04-08T07:46:05;2.03;;;1.93;;
20140;SDS011;10231;47.702;9.826;2023-04-08T07:48:31;2.50;;;2.30;;
20140;SDS011;10231;47.702;9.826;2023-04-08T07:51:01;2.30;;;2.20;;
20140;SDS011;10231;47.702;9.826;2023-04-08T07:53:36;1.87;;;1.77;;
20140;SDS011;10231;47.702;9.826;2023-04-08T07:56:02;2.03;;;1.93;;
20140;SDS011;10231;47.702;9.826;2023-04-08T07:58:34;2.00;;;1.90;;
20140;SDS011;10231;47.702;9.826;2023-04-08T08:00:59;2.10;;;2.00;;
20140;SDS011;10231;47.702;9.826;2023-04-08T08:03:25;2.93;;;2.40;;
20140;SDS011;10231;47.702;9.826;2023-04-08T08:05:51;2.03;;;1.93;;
20140;SDS011;10231;47.702;9.826;2023-04-08T08:08:16;2.10;;;2.00;;
20140;SDS011;10231;47.702;9.826;2023-04-08T08:10:42;2.20;;;2.10;;
20140;SDS011;10231;47.702;9.826;2023-04-08T08:13:07;2.50;;;2.40;;
20140;SDS011;10231;47.702;9.826;2023-04-08T08:15:33;2.60;;;2.43;;
20140;SDS011;10231;47.702;9.826;2023-04-08T08:17:59;2.73;;;2.53;;
20140;SDS011;10231;47.702;9.826;2023-04-08T08:20:25;2.70;;;2.60;;
20140;SDS011;10231;47.702;9.826;2023-04-08T08:22:51;2.27;;;2.17;;
20140;SDS011;10231;47.702;9.826;2023-04-08T08:25:16;3.00;;;2.80;;
20140;SDS011;10231;47.702;9.826;2023-04-08T08:27:42;2.63;;;2.53;;
20140;SDS011;10231;47.702;9.826;2023-04-08T08:30:09;3.07;;;2.87;;
20140;SDS011;10231;47.702;9.826;2023-04-08T08:32:34;2.90;;;2.70;;
20140;SDS011;10231;47.702;9.826;2023-04-08T08:35:00;3.13;;;2.80;;
20140;SDS011;10231;47.702;9.826;2023-04-08T08:37:26;11.13;;;8.53;;
20140;SDS011;10231;47.702;9.826;2023-04-08T08:39:51;7.80;;;6.80;;
20140;SDS011;10231;47.702;9.826;2023-04-08T08:42:26;4.33;;;3.93;;
20140;SDS011;10231;47.702;9.826;2023-04-08T08:44:51;4.57;;;4.20;;
20140;SDS011;10231;47.702;9.826;2023-04-08T08:47:18;4.57;;;4.17;;
20140;SDS011;10231;47.702;9.826;2023-04-08T08:49:44;4.50;;;4.20;;
20140;SDS011;10231;47.702;9.826;2023-04-08T08:52:14;4.93;;;4.60;;
20140;SDS011;10231;47.702;9.826;2023-04-08T08:54:41;4.27;;;3.97;;
20140;SDS011;10231;47.702;9.826;2023-04-08T08:57:18;5.57;;;5.10;;
20140;SDS011;10231;47.702;9.826;2023-04-08T08:59:47;5.07;;;4.63;;
20140;SDS011;10231;47.702;9.826;2023-04-08T09:02:26;4.80;;;4.50;;
20140;SDS011;10231;47.702;9.826;2023-04-08T09:04:56;5.00;;;4.60;;
20140;SDS011;10231;47.702;9.826;2023-04-08T09:07:27;5.30;;;4.90;;
20140;SDS011;10231;47.702;9.826;2023-04-08T09:09:54;4.90;;;4.50;;
20140;SDS011;10231;47.702;9.826;2023-04-08T09:12:22;5.60;;;5.13;;
20140;SDS011;10231;47.702;9.826;2023-04-08T09:14:48;6.90;;;6.20;;
20140;SDS011;10231;47.702;9.826;2023-04-08T09:17:14;4.83;;;4.43;;
20140;SDS011;10231;47.702;9.826;2023-04-08T09:20:02;6.13;;;5.53;;
20140;SDS011;10231;47.702;9.826;2023-04-08T09:25:30;5.90;;;5.30;;
20140;SDS011;10231;47.702;9.826;2023-04-08T09:27:57;5.90;;;5.20;;
20140;SDS011;10231;47.702;9.826;2023-04-08T09:30:23;5.10;;;4.70;;
20140;SDS011;10231;47.702;9.826;2023-04-08T09:32:51;6.20;;;5.70;;
20140;SDS011;10231;47.702;9.826;2023-04-08T09:35:19;5.03;;;4.63;;
20140;SDS011;10231;47.702;9.826;2023-04-08T09:37:45;5.27;;;4.87;;
20140;SDS011;10231;47.702;9.826;2023-04-08T09:40:11;7.13;;;6.40;;
20140;SDS011;10231;47.702;9.826;2023-04-08T09:42:38;6.13;;;5.63;;
20140;SDS011;10231;47.702;9.826;2023-04-08T09:45:05;6.23;;;5.73;;
20140;SDS011;10231;47.702;9.826;2023-04-08T09:47:35;5.73;;;5.23;;
20140;SDS011;10231;47.702;9.826;2023-04-08T09:50:08;6.07;;;5.57;;
20140;SDS011;10231;47.702;9.826;2023-04-08T09:52:56;6.00;;;5.50;;
20140;SDS011;10231;47.702;9.826;2023-04-08T09:55:33;5.67;;;5.27;;
20140;SDS011;10231;47.702;9.826;2023-04-08T09:58:02;6.30;;;5.73;;
20140;SDS011;10231;47.702;9.826;2023-04-08T10:00:41;6.50;;;6.00;;
20140;SDS011;10231;47.702;9.826;2023-04-08T10:05:54;6.33;;;5.73;;
20140;SDS011;10231;47.702;9.826;2023-04-08T10:08:22;6.80;;;6.20;;
20140;SDS011;10231;47.702;9.826;2023-04-08T10:10:49;7.77;;;6.17;;
20140;SDS011;10231;47.702;9.826;2023-04-08T10:13:15;6.70;;;6.00;;
20140;SDS011;10231;47.702;9.826;2023-04-08T10:15:41;7.20;;;6.50;;
20140;SDS011;10231;47.702;9.826;2023-04-08T10:25:44;8.10;;;7.37;;
20140;SDS011;10231;47.702;9.826;2023-04-08T10:33:12;9.13;;;7.27;;
20140;SDS011;10231;47.702;9.826;2023-04-08T10:35:45;8.40;;;7.60;;
20140;SDS011;10231;47.702;9.826;2023-04-08T10:38:19;8.93;;;7.57;;
20140;SDS011;10231;47.702;9.826;2023-04-08T10:40:46;9.90;;;8.03;;
20140;SDS011;10231;47.702;9.826;2023-04-08T10:43:13;8.03;;;7.20;;
20140;SDS011;10231;47.702;9.826;2023-04-08T10:45:40;8.30;;;7.43;;
20140;SDS011;10231;47.702;9.826;2023-04-08T10:48:25;7.93;;;7.13;;
20140;SDS011;10231;47.702;9.826;2023-04-08T10:53:29;9.00;;;8.10;;
20140;SDS011;10231;47.702;9.826;2023-04-08T10:58:48;8.70;;;7.57;;
20140;SDS011;10231;47.702;9.826;2023-04-08T11:01:13;10.17;;;8.43;;
20140;SDS011;10231;47.702;9.826;2023-04-08T11:03:40;9.47;;;8.47;;
20140;SDS011;10231;47.702;9.826;2023-04-08T11:06:07;8.43;;;7.63;;
20140;SDS011;10231;47.702;9.826;2023-04-08T11:08:33;8.93;;;8.03;;
20140;SDS011;10231;47.702;9.826;2023-04-08T11:11:00;9.87;;;8.87;;
20140;SDS011;10231;47.702;9.826;2023-04-08T11:13:27;8.50;;;7.57;;
20140;SDS011;10231;47.702;9.826;2023-04-08T11:15:53;8.70;;;7.57;;
20140;SDS011;10231;47.702;9.826;2023-04-08T11:18:20;8.10;;;7.23;;
20140;SDS011;10231;47.702;9.826;2023-04-08T11:20:49;8.03;;;7.23;;
20140;SDS011;10231;47.702;9.826;2023-04-08T11:23:15;10.17;;;9.00;;
20140;SDS011;10231;47.702;9.826;2023-04-08T11:25:42;9.00;;;8.00;;
20140;SDS011;10231;47.702;9.826;2023-04-08T11:28:09;8.50;;;7.70;;
20140;SDS011;10231;47.702;9.826;2023-04-08T11:30:39;7.40;;;6.70;;
20140;SDS011;10231;47.702;9.826;2023-04-08T11:33:05;8.33;;;7.50;;
20140;SDS011;10231;47.702;9.826;2023-04-08T11:35:31;8.77;;;7.87;;
20140;SDS011;10231;47.702;9.826;2023-04-08T11:37:57;8.50;;;7.70;;
20140;SDS011;10231;47.702;9.826;2023-04-08T11:40:23;9.90;;;8.90;;
20140;SDS011;10231;47.702;9.826;2023-04-08T11:42:50;9.87;;;8.87;;
20140;SDS011;10231;47.702;9.826;2023-04-08T11:45:17;10.67;;;9.30;;
20140;SDS011;10231;47.702;9.826;2023-04-08T11:47:43;11.03;;;9.33;;
20140;SDS011;10231;47.702;9.826;2023-04-08T11:50:10;9.47;;;8.47;;
20140;SDS011;10231;47.702;9.826;2023-04-08T11:52:45;10.40;;;9.30;;
20140;SDS011;10231;47.702;9.826;2023-04-08T11:55:23;10.63;;;9.00;;
20140;SDS011;10231;47.702;9.826;2023-04-08T11:57:50;9.90;;;8.90;;
20140;SDS011;10231;47.702;9.826;2023-04-08T12:00:18;11.43;;;10.20;;
20140;SDS011;10231;47.702;9.826;2023-04-08T12:02:44;12.50;;;10.27;;
20140;SDS011;10231;47.702;9.826;2023-04-08T12:05:11;11.60;;;9.10;;
20140;SDS011;10231;47.702;9.826;2023-04-08T12:07:38;10.53;;;9.43;;
20140;SDS011;10231;47.702;9.826;2023-04-08T12:10:04;10.23;;;9.20;;
20140;SDS011;10231;47.702;9.826;2023-04-08T12:12:30;10.90;;;9.77;;
20140;SDS011;10231;47.702;9.826;2023-04-08T12:14:55;12.30;;;11.00;;
20140;SDS011;10231;47.702;9.826;2023-04-08T12:17:21;11.07;;;9.93;;
20140;SDS011;10231;47.702;9.826;2023-04-08T12:19:47;11.13;;;9.93;;
20140;SDS011;10231;47.702;9.826;2023-04-08T12:22:12;12.40;;;11.10;;
20140;SDS011;10231;47.702;9.826;2023-04-08T12:24:38;12.23;;;10.93;;
20140;SDS011;10231;47.702;9.826;2023-04-08T12:27:03;12.33;;;11.03;;
20140;SDS011;10231;47.702;9.826;2023-04-08T12:29:29;9.77;;;8.73;;
20140;SDS011;10231;47.702;9.826;2023-04-08T12:31:55;9.53;;;8.63;;
20140;SDS011;10231;47.702;9.826;2023-04-08T12:34:21;9.70;;;8.70;;
20140;SDS011;10231;47.702;9.826;2023-04-08T12:36:46;10.73;;;9.10;;
20140;SDS011;10231;47.702;9.826;2023-04-08T12:39:13;11.93;;;10.73;;
20140;SDS011;10231;47.702;9.826;2023-04-08T12:41:38;12.23;;;10.57;;
20140;SDS011;10231;47.702;9.826;2023-04-08T12:44:04;12.37;;;11.00;;
20140;SDS011;10231;47.702;9.826;2023-04-08T12:46:29;14.17;;;12.43;;
20140;SDS011;10231;47.702;9.826;2023-04-08T12:48:55;16.57;;;13.37;;
20140;SDS011;10231;47.702;9.826;2023-04-08T12:51:20;16.33;;;14.13;;
20140;SDS011;10231;47.702;9.826;2023-04-08T12:53:46;17.73;;;14.50;;
20140;SDS011;10231;47.702;9.826;2023-04-08T12:56:12;15.93;;;14.30;;
20140;SDS011;10231;47.702;9.826;2023-04-08T12:58:38;17.47;;;15.37;;
20140;SDS011;10231;47.702;9.826;2023-04-08T13:01:03;18.20;;;16.00;;
20140;SDS011;10231;47.702;9.826;2023-04-08T13:03:30;17.13;;;15.33;;
20140;SDS011;10231;47.702;9.826;2023-04-08T13:05:56;17.23;;;14.53;;
20140;SDS011;10231;47.702;9.826;2023-04-08T13:08:23;17.80;;;15.53;;
20140;SDS011;10231;47.702;9.826;2023-04-08T13:10:49;17.50;;;15.07;;
20140;SDS011;10231;47.702;9.826;2023-04-08T13:13:14;16.20;;;14.47;;
20140;SDS011;10231;47.702;9.826;2023-04-08T13:15:40;15.53;;;13.90;;
20140;SDS011;10231;47.702;9.826;2023-04-08T13:18:05;15.80;;;14.10;;
20140;SDS011;10231;47.702;9.826;2023-04-08T13:20:31;17.60;;;15.70;;
20140;SDS011;10231;47.702;9.826;2023-04-08T13:22:57;16.17;;;14.53;;
20140;SDS011;10231;47.702;9.826;2023-04-08T13:25:24;15.60;;;13.83;;
20140;SDS011;10231;47.702;9.826;2023-04-08T13:27:50;15.17;;;13.70;;
20140;SDS011;10231;47.702;9.826;2023-04-08T13:30:15;16.27;;;14.53;;
20140;SDS011;10231;47.702;9.826;2023-04-08T13:32:41;15.70;;;14.10;;
20140;SDS011;10231;47.702;9.826;2023-04-08T13:35:06;16.67;;;14.50;;
20140;SDS011;10231;47.702;9.826;2023-04-08T13:37:32;17.47;;;15.20;;
20140;SDS011;10231;47.702;9.826;2023-04-08T13:39:58;15.63;;;13.93;;
20140;SDS011;10231;47.702;9.826;2023-04-08T13:42:23;17.33;;;15.50;;
20140;SDS011;10231;47.702;9.826;2023-04-08T13:44:49;16.50;;;14.80;;
20140;SDS011;10231;47.702;9.826;2023-04-08T13:47:15;17.00;;;15.20;;
20140;SDS011;10231;47.702;9.826;2023-04-08T13:49:41;15.73;;;13.90;;
20140;SDS011;10231;47.702;9.826;2023-04-08T13:52:06;15.67;;;14.07;;
20140;SDS011;10231;47.702;9.826;2023-04-08T13:54:32;16.97;;;14.10;;
20140;SDS011;10231;47.702;9.826;2023-04-08T13:56:57;15.30;;;13.70;;
20140;SDS011;10231;47.702;9.826;2023-04-08T13:59:23;16.63;;;14.87;;
20140;SDS011;10231;47.702;9.826;2023-04-08T14:01:48;16.50;;;14.60;;
20140;SDS011;10231;47.702;9.826;2023-04-08T14:04:18;16.87;;;14.57;;
20140;SDS011;10231;47.702;9.826;2023-04-08T14:06:44;16.57;;;14.77;;
20140;SDS011;10231;47.702;9.826;2023-04-08T14:09:10;15.03;;;13.43;;
20140;SDS011;10231;47.702;9.826;2023-04-08T14:11:36;16.97;;;15.03;;
20140;SDS011;10231;47.702;9.826;2023-04-08T14:14:01;15.73;;;14.03;;
20140;SDS011;10231;47.702;9.826;2023-04-08T14:16:27;15.67;;;14.07;;
20140;SDS011;10231;47.702;9.826;2023-04-08T14:18:54;14.00;;;12.60;;
20140;SDS011;10231;47.702;9.826;2023-04-08T14:21:21;12.60;;;11.37;;
20140;SDS011;10231;47.702;9.826;2023-04-08T14:23:46;14.27;;;12.87;;
20140;SDS011;10231;47.702;9.826;2023-04-08T14:26:12;15.47;;;13.87;;
20140;SDS011;10231;47.702;9.826;2023-04-08T14:28:38;14.90;;;13.37;;
20140;SDS011;10231;47.702;9.826;2023-04-08T14:31:03;14.97;;;13.47;;
20140;SDS011;10231;47.702;9.826;2023-04-08T14:33:30;15.33;;;13.23;;
20140;SDS011;10231;47.702;9.826;2023-04-08T14:35:56;14.50;;;13.10;;
20140;SDS011;10231;47.702;9.826;2023-04-08T14:38:23;15.20;;;13.60;;
20140;SDS011;10231;47.702;9.826;2023-04-08T14:40:48;15.43;;;13.50;;
20140;SDS011;10231;47.702;9.826;2023-04-08T14:43:14;16.00;;;14.37;;
20140;SDS011;10231;47.702;9.826;2023-04-08T14:45:40;15.67;;;14.07;;
20140;SDS011;10231;47.702;9.826;2023-04-08T14:48:06;15.40;;;13.80;;
20140;SDS011;10231;47.702;9.826;2023-04-08T14:50:31;14.67;;;13.27;;
20140;SDS011;10231;47.702;9.826;2023-04-08T14:52:57;14.40;;;12.87;;
20140;SDS011;10231;47.702;9.826;2023-04-08T14:55:22;15.67;;;14.03;;
20140;SDS011;10231;47.702;9.826;2023-04-08T14:57:49;17.20;;;14.30;;
20140;SDS011;10231;47.702;9.826;2023-04-08T15:00:15;14.97;;;13.37;;
20140;SDS011;10231;47.702;9.826;2023-04-08T15:02:40;14.97;;;13.37;;